Time;durP1;ratioP1;P1;durP2;ratioP2;P2;SDS_P1;SDS_P2;PMS_P1;PMS_P2;Temp;Humidity;BMP_temperature;BMP_pressure;BME280_temperature;BME280_humidity;BME280_pressure;Samples;Min_cycle;Max_cycle;Signal;HPM_P1;HPM_P2
2023/12/06 00:00:51;;;;;;;0.30;0.30;;;6.90;99.90;;;;;;7392496;19;20146;-76
2023/12/06 00:03:17;;;;;;;0.30;0.30;;;6.80;99.90;;;;;;7397907;19;20163;-75
2023/12/06 00:05:43;;;;;;;0.20;0.20;;;6.90;99.90;;;;;;7391391;19;20160;-75
2023/12/06 00:08:09;;;;;;;0.30;0.30;;;6.90;99.90;;;;;;7396093;19;20210;-75
2023/12/06 00:10:35;;;;;;;0.20;0.20;;;6.90;99.90;;;;;;7394009;19;20248;-75
2023/12/06 00:13:00;;;;;;;0.20;0.20;;;6.90;99.90;;;;;;7392348;19;20155;-74
2023/12/06 00:15:27;;;;;;;0.40;0.20;;;6.90;99.90;;;;;;7390657;19;20488;-75
2023/12/06 00:17:53;;;;;;;0.20;0.20;;;6.90;99.90;;;;;;7391355;19;20143;-76
2023/12/06 00:20:18;;;;;;;0.20;0.20;;;6.90;99.90;;;;;;7391464;19;20509;-76
2023/12/06 00:22:44;;;;;;;0.10;0.10;;;6.80;99.90;;;;;;7389385;19;20135;-75
2023/12/06 00:25:10;;;;;;;0.30;0.30;;;6.90;99.90;;;;;;7394177;19;20574;-76
2023/12/06 00:27:37;;;;;;;0.10;0.10;;;6.90;99.90;;;;;;7391371;19;20176;-76
2023/12/06 00:30:04;;;;;;;0.20;0.20;;;6.90;99.90;;;;;;7392141;19;20517;-76
2023/12/06 00:32:29;;;;;;;0.20;0.20;;;6.90;99.90;;;;;;7391996;19;20142;-74
2023/12/06 00:34:55;;;;;;;0.13;0.13;;;6.90;99.90;;;;;;7389466;19;20675;-76
2023/12/06 00:37:21;;;;;;;0.30;0.30;;;6.90;99.90;;;;;;7392709;19;20146;-75
2023/12/06 00:39:47;;;;;;;0.10;0.10;;;6.70;99.90;;;;;;7389292;19;20503;-76
2023/12/06 00:42:12;;;;;;;0.10;0.10;;;6.70;99.90;;;;;;7391800;19;20202;-76
2023/12/06 00:44:38;;;;;;;0.20;0.20;;;6.80;99.90;;;;;;7385565;19;20166;-76
2023/12/06 00:47:04;;;;;;;0.23;0.23;;;6.80;99.90;;;;;;7391750;19;20131;-74
2023/12/06 00:49:30;;;;;;;0.20;0.20;;;6.90;99.90;;;;;;7391579;19;20127;-75
2023/12/06 00:51:58;;;;;;;0.20;0.20;;;6.80;99.90;;;;;;7392338;19;20150;-75
2023/12/06 00:54:23;;;;;;;0.20;0.20;;;6.90;99.90;;;;;;7390428;19;20175;-75
2023/12/06 00:56:49;;;;;;;0.30;0.30;;;6.90;99.90;;;;;;7393117;19;20599;-75
2023/12/06 00:59:15;;;;;;;0.20;0.20;;;6.80;99.90;;;;;;7391011;19;20244;-76
2023/12/06 01:01:41;;;;;;;0.20;0.20;;;6.90;99.90;;;;;;7391463;19;20169;-74
2023/12/06 01:04:06;;;;;;;0.17;0.17;;;6.90;99.90;;;;;;7390233;19;20127;-75
2023/12/06 01:06:32;;;;;;;0.20;0.20;;;6.90;99.90;;;;;;7395279;19;20137;-75
2023/12/06 01:08:58;;;;;;;0.20;0.20;;;6.90;99.90;;;;;;7382697;19;20499;-75
2023/12/06 01:11:25;;;;;;;0.20;0.20;;;6.90;99.90;;;;;;7387740;19;20139;-75
2023/12/06 01:13:50;;;;;;;0.10;0.10;;;6.90;99.90;;;;;;7389160;19;20236;-75
2023/12/06 01:16:16;;;;;;;0.10;0.10;;;6.90;99.90;;;;;;7387730;19;20518;-75
2023/12/06 01:18:42;;;;;;;0.20;0.20;;;6.90;99.90;;;;;;7387539;19;20134;-75
2023/12/06 01:21:08;;;;;;;0.10;0.10;;;6.90;99.90;;;;;;7387880;19;20138;-75
2023/12/06 01:23:33;;;;;;;0.17;0.17;;;6.80;99.90;;;;;;7392834;19;20135;-75
2023/12/06 01:25:59;;;;;;;0.40;0.40;;;6.80;99.90;;;;;;7387908;19;20156;-75
2023/12/06 01:28:25;;;;;;;0.20;0.20;;;6.90;99.90;;;;;;7393199;19;20146;-76
2023/12/06 01:30:50;;;;;;;0.20;0.20;;;6.80;99.90;;;;;;7391720;19;20671;-74
2023/12/06 01:33:16;;;;;;;0.13;0.13;;;6.70;99.90;;;;;;7392988;19;20938;-75
2023/12/06 01:35:42;;;;;;;0.20;0.20;;;6.70;99.90;;;;;;7387007;19;20134;-75
2023/12/06 01:38:08;;;;;;;0.40;0.30;;;6.60;99.90;;;;;;7392076;19;20130;-76
2023/12/06 01:40:36;;;;;;;0.20;0.20;;;6.60;99.90;;;;;;7392894;19;20135;-75
2023/12/06 01:43:02;;;;;;;0.20;0.20;;;6.70;99.90;;;;;;7389985;19;20150;-75
2023/12/06 01:45:28;;;;;;;0.20;0.20;;;6.70;99.90;;;;;;7389936;19;20550;-75
2023/12/06 01:47:55;;;;;;;0.40;0.40;;;6.70;99.90;;;;;;7390980;19;20634;-74
2023/12/06 01:50:23;;;;;;;0.20;0.20;;;6.80;99.90;;;;;;7391985;19;20196;-75
2023/12/06 01:52:48;;;;;;;0.13;0.13;;;6.80;99.90;;;;;;7393676;19;20730;-75
2023/12/06 01:55:14;;;;;;;0.20;0.20;;;6.70;99.90;;;;;;7389946;19;20142;-75
2023/12/06 01:57:41;;;;;;;0.20;0.20;;;6.70;99.90;;;;;;7381084;19;20487;-75
2023/12/06 02:00:07;;;;;;;0.10;0.10;;;6.80;99.90;;;;;;7383750;19;20143;-75
2023/12/06 02:02:33;;;;;;;0.13;0.13;;;6.80;99.90;;;;;;7390244;19;20134;-75
2023/12/06 02:05:01;;;;;;;0.27;0.27;;;6.80;99.90;;;;;;7391516;19;20131;-74
2023/12/06 02:07:28;;;;;;;0.23;0.23;;;6.80;99.90;;;;;;7392469;19;20142;-75
2023/12/06 02:09:54;;;;;;;0.20;0.20;;;6.80;99.90;;;;;;7389020;19;20130;-75
2023/12/06 02:12:20;;;;;;;0.20;0.20;;;6.80;99.90;;;;;;7391180;19;20508;-75
2023/12/06 02:14:46;;;;;;;0.30;0.30;;;6.70;99.90;;;;;;7390555;19;20146;-76
2023/12/06 02:17:13;;;;;;;0.23;0.23;;;6.70;99.90;;;;;;7391079;19;20503;-75
2023/12/06 02:19:39;;;;;;;0.27;0.27;;;6.70;99.90;;;;;;7386241;19;20459;-75
2023/12/06 02:22:07;;;;;;;0.30;0.30;;;6.70;99.90;;;;;;7388869;19;20287;-74
2023/12/06 02:24:34;;;;;;;0.20;0.20;;;6.80;99.90;;;;;;7391776;19;20118;-74
2023/12/06 02:26:59;;;;;;;0.27;0.27;;;6.80;99.90;;;;;;7386843;19;20445;-75
2023/12/06 02:29:25;;;;;;;0.13;0.13;;;6.80;99.90;;;;;;7387505;19;20171;-74
2023/12/06 02:31:51;;;;;;;0.10;0.10;;;6.80;99.90;;;;;;7391299;19;20589;-75
2023/12/06 02:34:27;;;;;;;0.20;0.20;;;6.90;99.90;;;;;;7392350;19;20135;-75
2023/12/06 02:36:57;;;;;;;0.20;0.20;;;6.80;99.90;;;;;;7388590;19;20130;-75
2023/12/06 02:39:31;;;;;;;0.20;0.20;;;6.80;99.90;;;;;;7392825;19;20542;-75
2023/12/06 02:41:56;;;;;;;0.20;0.20;;;6.80;99.90;;;;;;7380864;19;20154;-75
2023/12/06 02:44:22;;;;;;;0.20;0.20;;;6.90;99.90;;;;;;7388911;19;20566;-75
2023/12/06 02:46:50;;;;;;;0.10;0.10;;;6.80;99.90;;;;;;7389589;19;20459;-76
2023/12/06 02:49:19;;;;;;;0.20;0.20;;;6.80;99.90;;;;;;7391112;19;20195;-75
2023/12/06 02:51:45;;;;;;;0.10;0.10;;;6.80;99.90;;;;;;7390682;19;20150;-74
2023/12/06 02:54:11;;;;;;;0.37;0.37;;;6.70;99.90;;;;;;7384592;19;20166;-75
2023/12/06 02:56:37;;;;;;;0.20;0.20;;;6.80;99.90;;;;;;7383657;19;20607;-74
2023/12/06 02:59:02;;;;;;;0.10;0.10;;;6.80;99.90;;;;;;7388508;19;20130;-75
2023/12/06 03:01:30;;;;;;;0.10;0.10;;;6.90;99.90;;;;;;7384388;19;20131;-74
2023/12/06 03:03:56;;;;;;;0.17;0.17;;;6.80;99.90;;;;;;7388682;19;20163;-75
2023/12/06 03:06:22;;;;;;;0.20;0.20;;;6.90;99.90;;;;;;7387358;19;20471;-74
2023/12/06 03:08:47;;;;;;;0.20;0.20;;;6.80;99.90;;;;;;7385249;19;20130;-75
2023/12/06 03:11:13;;;;;;;0.33;0.33;;;6.70;99.90;;;;;;7389162;19;20139;-75
2023/12/06 03:13:39;;;;;;;0.20;0.20;;;6.80;99.90;;;;;;7389279;19;20138;-75
2023/12/06 03:16:04;;;;;;;0.20;0.20;;;6.80;99.90;;;;;;7390204;19;20663;-74
2023/12/06 03:18:30;;;;;;;0.30;0.30;;;6.80;99.90;;;;;;7391538;19;20139;-75
2023/12/06 03:20:56;;;;;;;0.20;0.20;;;6.80;99.90;;;;;;7388496;19;20219;-74
2023/12/06 03:23:22;;;;;;;0.10;0.10;;;6.90;99.90;;;;;;7385740;19;20159;-75
2023/12/06 03:25:48;;;;;;;0.20;0.20;;;6.80;99.90;;;;;;7386079;19;20142;-75
2023/12/06 03:28:13;;;;;;;0.20;0.20;;;6.90;99.90;;;;;;7384058;19;20134;-75
2023/12/06 03:30:39;;;;;;;0.20;0.20;;;6.80;99.90;;;;;;7389546;19;20135;-75
2023/12/06 03:33:05;;;;;;;0.30;0.30;;;6.80;99.90;;;;;;7385610;19;20134;-74
2023/12/06 03:35:30;;;;;;;0.20;0.20;;;6.90;99.90;;;;;;7385437;19;20127;-75
2023/12/06 03:37:56;;;;;;;0.27;0.27;;;6.80;99.90;;;;;;7385641;19;20588;-74
2023/12/06 03:40:22;;;;;;;0.20;0.20;;;6.80;99.90;;;;;;7384310;19;20194;-75
2023/12/06 03:42:47;;;;;;;0.20;0.20;;;6.80;99.90;;;;;;7385776;19;20174;-75
2023/12/06 03:45:13;;;;;;;0.20;0.20;;;6.90;99.90;;;;;;7387678;19;20162;-74
2023/12/06 03:47:39;;;;;;;0.20;0.20;;;7.00;99.90;;;;;;7384817;19;20134;-75
2023/12/06 03:50:05;;;;;;;0.30;0.30;;;6.90;99.90;;;;;;7386742;19;20135;-75
2023/12/06 03:52:31;;;;;;;0.30;0.30;;;6.80;99.90;;;;;;7392040;19;20145;-76
2023/12/06 03:54:57;;;;;;;0.20;0.20;;;6.80;99.90;;;;;;7383739;19;20830;-75
2023/12/06 03:57:23;;;;;;;0.17;0.17;;;6.80;99.90;;;;;;7386997;19;20707;-74
2023/12/06 03:59:49;;;;;;;0.20;0.20;;;6.80;99.90;;;;;;7386352;19;20139;-75
2023/12/06 04:02:15;;;;;;;0.20;0.20;;;6.80;99.90;;;;;;7389629;19;20596;-75
2023/12/06 04:04:41;;;;;;;0.20;0.20;;;6.80;99.90;;;;;;7386816;19;20703;-75
2023/12/06 04:07:07;;;;;;;0.20;0.20;;;6.90;99.90;;;;;;7388940;19;20135;-75
2023/12/06 04:09:32;;;;;;;0.20;0.20;;;7.00;99.90;;;;;;7389045;19;20512;-75
2023/12/06 04:11:59;;;;;;;0.20;0.20;;;6.90;99.90;;;;;;7395639;19;20151;-75
2023/12/06 04:14:25;;;;;;;0.30;0.30;;;6.90;99.90;;;;;;7385898;19;20135;-74
2023/12/06 04:16:52;;;;;;;0.20;0.20;;;6.90;99.90;;;;;;7395130;19;20137;-75
2023/12/06 04:19:17;;;;;;;0.20;0.20;;;6.80;99.90;;;;;;7388248;19;20127;-74
2023/12/06 04:21:43;;;;;;;0.13;0.13;;;6.80;99.90;;;;;;7395982;19;20681;-74
2023/12/06 04:24:09;;;;;;;0.20;0.20;;;6.70;99.90;;;;;;7389265;19;20695;-74
2023/12/06 04:26:35;;;;;;;0.20;0.20;;;6.90;99.90;;;;;;7394907;19;20206;-75
2023/12/06 04:29:01;;;;;;;0.30;0.27;;;7.00;99.90;;;;;;7396498;19;20130;-74
2023/12/06 04:31:26;;;;;;;0.13;0.13;;;7.10;99.90;;;;;;7395773;19;20157;-74
2023/12/06 04:33:52;;;;;;;0.10;0.10;;;7.10;99.90;;;;;;7393947;19;20168;-75
2023/12/06 04:36:18;;;;;;;0.13;0.13;;;7.00;99.90;;;;;;7394612;19;20498;-75
2023/12/06 04:38:43;;;;;;;0.47;0.30;;;7.00;99.90;;;;;;7388634;19;20131;-74
2023/12/06 04:41:09;;;;;;;0.10;0.10;;;7.00;99.90;;;;;;7392407;19;20138;-74
2023/12/06 04:43:35;;;;;;;0.20;0.20;;;7.10;99.90;;;;;;7392404;19;20178;-74
2023/12/06 04:46:01;;;;;;;0.20;0.20;;;6.90;99.90;;;;;;7392600;19;20600;-74
2023/12/06 04:48:27;;;;;;;0.10;0.10;;;6.90;99.90;;;;;;7396906;19;20174;-74
2023/12/06 04:50:53;;;;;;;0.10;0.10;;;6.90;99.90;;;;;;7394000;19;20142;-75
2023/12/06 04:53:18;;;;;;;0.20;0.20;;;6.90;99.90;;;;;;7397695;19;20476;-75
2023/12/06 04:55:45;;;;;;;0.20;0.20;;;7.00;99.90;;;;;;7397760;19;20138;-75
2023/12/06 04:58:11;;;;;;;0.20;0.20;;;7.00;99.90;;;;;;7392267;19;20213;-74
2023/12/06 05:00:37;;;;;;;0.30;0.20;;;6.90;99.90;;;;;;7391664;19;20138;-74
2023/12/06 05:03:03;;;;;;;0.30;0.30;;;6.80;99.90;;;;;;7391161;19;20584;-73
2023/12/06 05:05:29;;;;;;;0.20;0.20;;;6.90;99.90;;;;;;7390573;19;20142;-74
2023/12/06 05:07:57;;;;;;;0.10;0.10;;;6.90;99.90;;;;;;7393886;19;20635;-74
2023/12/06 05:10:23;;;;;;;0.43;0.30;;;6.90;99.90;;;;;;7393063;19;20203;-75
2023/12/06 05:12:49;;;;;;;0.10;0.10;;;6.90;99.90;;;;;;7393830;19;20522;-75
2023/12/06 05:15:15;;;;;;;0.20;0.20;;;7.00;99.90;;;;;;7389704;19;20158;-74
2023/12/06 05:17:40;;;;;;;0.10;0.10;;;6.90;99.90;;;;;;7386455;19;20588;-74
2023/12/06 05:20:07;;;;;;;0.10;0.10;;;7.00;99.90;;;;;;7390417;19;20146;-74
2023/12/06 05:22:33;;;;;;;0.13;0.13;;;7.10;99.90;;;;;;7391251;19;20205;-75
2023/12/06 05:24:59;;;;;;;0.20;0.20;;;7.10;99.90;;;;;;7386335;19;20151;-75
2023/12/06 05:27:26;;;;;;;0.17;0.17;;;7.00;99.90;;;;;;7388867;19;20138;-76
2023/12/06 05:29:51;;;;;;;0.23;0.23;;;7.10;99.90;;;;;;7393663;19;20142;-75
2023/12/06 05:32:17;;;;;;;0.30;0.30;;;7.10;99.90;;;;;;7388851;19;20146;-76
2023/12/06 05:34:43;;;;;;;0.10;0.10;;;7.00;99.90;;;;;;7391620;19;20135;-74
2023/12/06 05:37:09;;;;;;;0.67;0.20;;;7.00;99.90;;;;;;7390347;19;20595;-75
2023/12/06 05:39:36;;;;;;;0.37;0.37;;;7.10;99.90;;;;;;7395698;19;20588;-74
2023/12/06 05:42:03;;;;;;;0.20;0.20;;;7.10;99.90;;;;;;7395158;19;20945;-75
2023/12/06 05:44:30;;;;;;;0.40;0.30;;;7.10;99.90;;;;;;7389265;19;20154;-75
2023/12/06 05:46:56;;;;;;;0.30;0.30;;;7.00;99.90;;;;;;7389483;19;20155;-74
2023/12/06 05:49:23;;;;;;;0.37;0.30;;;7.00;99.90;;;;;;7392547;19;20437;-75
2023/12/06 05:51:48;;;;;;;0.20;0.20;;;7.10;99.90;;;;;;7392673;19;20138;-75
2023/12/06 05:54:14;;;;;;;0.20;0.20;;;7.10;99.90;;;;;;7394971;19;20198;-75
2023/12/06 05:56:40;;;;;;;0.20;0.20;;;7.00;99.90;;;;;;7395474;19;20130;-74
2023/12/06 05:59:06;;;;;;;0.30;0.30;;;7.10;99.90;;;;;;7397441;19;20580;-74
2023/12/06 06:01:32;;;;;;;0.20;0.20;;;7.00;99.90;;;;;;7391908;19;20142;-75
2023/12/06 06:03:58;;;;;;;0.27;0.27;;;6.90;99.90;;;;;;7396634;19;20134;-74
2023/12/06 06:06:23;;;;;;;0.30;0.30;;;7.10;99.90;;;;;;7390604;19;20144;-75
2023/12/06 06:08:49;;;;;;;0.43;0.23;;;6.90;99.90;;;;;;7390189;19;20142;-75
2023/12/06 06:11:15;;;;;;;0.20;0.20;;;7.10;99.90;;;;;;7395990;19;20535;-74
2023/12/06 06:13:41;;;;;;;0.40;0.30;;;7.10;99.90;;;;;;7394155;19;20145;-74
2023/12/06 06:16:07;;;;;;;0.20;0.20;;;7.10;99.90;;;;;;7392698;19;20485;-75
2023/12/06 06:18:33;;;;;;;0.20;0.20;;;7.10;99.90;;;;;;7398189;19;20130;-75
2023/12/06 06:21:05;;;;;;;0.20;0.20;;;7.10;99.90;;;;;;7390783;19;20171;-75
2023/12/06 06:23:32;;;;;;;0.20;0.20;;;7.00;99.90;;;;;;7389746;19;20640;-75
2023/12/06 06:25:58;;;;;;;0.13;0.13;;;7.00;99.90;;;;;;7389536;19;20130;-76
2023/12/06 06:28:24;;;;;;;0.10;0.10;;;7.10;99.90;;;;;;7388408;19;20142;-75
2023/12/06 06:30:50;;;;;;;0.10;0.10;;;7.00;99.90;;;;;;7390212;19;20611;-74
2023/12/06 06:33:16;;;;;;;0.17;0.17;;;7.00;99.90;;;;;;7391531;19;20127;-75
2023/12/06 06:35:42;;;;;;;0.20;0.20;;;7.10;99.90;;;;;;7391842;19;20138;-76
2023/12/06 06:38:08;;;;;;;0.10;0.10;;;7.10;99.90;;;;;;7394004;19;20134;-75
2023/12/06 06:40:33;;;;;;;0.20;0.20;;;7.10;99.90;;;;;;7390960;19;20175;-77
2023/12/06 06:42:59;;;;;;;0.30;0.20;;;7.00;99.90;;;;;;7390715;19;20539;-76
2023/12/06 06:45:25;;;;;;;0.13;0.13;;;7.10;99.90;;;;;;7390367;19;20163;-76
2023/12/06 06:47:50;;;;;;;0.20;0.20;;;7.10;99.90;;;;;;7389918;19;20214;-76
2023/12/06 06:50:16;;;;;;;0.23;0.23;;;7.10;99.90;;;;;;7390796;19;20154;-74
2023/12/06 06:52:42;;;;;;;0.20;0.20;;;7.10;99.90;;;;;;7394440;19;20154;-75
2023/12/06 06:55:08;;;;;;;0.10;0.10;;;7.10;99.90;;;;;;7391610;19;20162;-75
2023/12/06 06:57:34;;;;;;;0.20;0.20;;;7.10;99.90;;;;;;7388087;19;20138;-80
2023/12/06 07:00:00;;;;;;;0.30;0.30;;;7.00;99.90;;;;;;7383725;19;20262;-75
2023/12/06 07:02:25;;;;;;;0.50;0.20;;;7.00;99.90;;;;;;7387060;19;20300;-77
2023/12/06 07:04:51;;;;;;;0.40;0.33;;;7.00;99.90;;;;;;7383449;19;20131;-75
2023/12/06 07:07:18;;;;;;;0.20;0.20;;;7.00;99.90;;;;;;7387448;19;20138;-77
2023/12/06 07:09:44;;;;;;;0.10;0.10;;;7.10;99.90;;;;;;7391727;19;20134;-77
2023/12/06 07:12:09;;;;;;;0.40;0.30;;;7.00;99.90;;;;;;7393090;19;20145;-77
2023/12/06 07:14:35;;;;;;;0.10;0.10;;;6.90;99.90;;;;;;7387649;19;20221;-77
2023/12/06 07:17:02;;;;;;;0.33;0.33;;;7.10;99.90;;;;;;7388100;19;20163;-77
2023/12/06 07:19:27;;;;;;;0.30;0.30;;;6.90;99.90;;;;;;7389788;19;20154;-75
2023/12/06 07:21:53;;;;;;;0.53;0.30;;;7.00;99.90;;;;;;7386745;19;20149;-76
2023/12/06 07:24:21;;;;;;;0.30;0.30;;;7.10;99.90;;;;;;7388646;19;21131;-76
2023/12/06 07:26:47;;;;;;;0.10;0.10;;;7.10;99.90;;;;;;7387557;19;20130;-75
2023/12/06 07:29:13;;;;;;;0.20;0.20;;;7.20;99.90;;;;;;7386714;19;20135;-75
2023/12/06 07:31:42;;;;;;;0.20;0.20;;;7.10;99.90;;;;;;7388177;19;20493;-75
2023/12/06 07:34:08;;;;;;;0.10;0.10;;;7.30;99.90;;;;;;7387503;19;20130;-74
2023/12/06 07:36:34;;;;;;;0.10;0.10;;;7.30;99.90;;;;;;7389145;19;20525;-75
2023/12/06 07:38:59;;;;;;;0.30;0.30;;;7.40;99.90;;;;;;7390134;19;20131;-76
2023/12/06 07:41:25;;;;;;;0.30;0.30;;;7.40;99.90;;;;;;7389839;19;20147;-75
2023/12/06 07:43:51;;;;;;;0.10;0.10;;;7.30;99.90;;;;;;7388782;19;20184;-76
2023/12/06 07:46:17;;;;;;;0.40;0.40;;;7.30;99.90;;;;;;7392274;19;20616;-76
2023/12/06 07:48:46;;;;;;;0.20;0.20;;;7.30;99.90;;;;;;7392086;19;20151;-75
2023/12/06 07:51:12;;;;;;;0.17;0.17;;;7.30;99.90;;;;;;7394159;19;20150;-76
2023/12/06 07:53:38;;;;;;;0.43;0.30;;;7.30;99.90;;;;;;7395985;19;20148;-76
2023/12/06 07:56:04;;;;;;;0.30;0.30;;;7.40;99.90;;;;;;7394675;19;20134;-76
2023/12/06 07:58:30;;;;;;;1.10;0.83;;;7.30;99.90;;;;;;7396464;19;20247;-75
2023/12/06 08:00:58;;;;;;;0.30;0.30;;;7.20;99.90;;;;;;7396272;19;20127;-75
2023/12/06 08:03:26;;;;;;;0.10;0.10;;;7.20;99.90;;;;;;7398606;19;20145;-75
2023/12/06 08:05:53;;;;;;;0.20;0.20;;;7.20;99.90;;;;;;7390130;19;20139;-75
2023/12/06 08:08:18;;;;;;;0.87;0.40;;;7.40;99.90;;;;;;7395032;19;20138;-75
2023/12/06 08:10:45;;;;;;;0.40;0.40;;;7.40;99.90;;;;;;7393940;19;20516;-75
2023/12/06 08:13:11;;;;;;;0.50;0.50;;;7.40;99.90;;;;;;7396309;19;20130;-74
2023/12/06 08:15:37;;;;;;;0.20;0.20;;;7.40;99.90;;;;;;7394948;19;20138;-74
2023/12/06 08:18:03;;;;;;;0.50;0.40;;;7.40;99.90;;;;;;7393691;19;20150;-74
2023/12/06 08:20:28;;;;;;;0.73;0.70;;;7.50;99.90;;;;;;7395886;19;20127;-74
2023/12/06 08:22:54;;;;;;;0.87;0.87;;;7.40;99.90;;;;;;7391225;19;20190;-74
2023/12/06 08:25:21;;;;;;;0.40;0.40;;;7.40;99.90;;;;;;7393393;19;20135;-75
2023/12/06 08:27:47;;;;;;;0.30;0.30;;;7.40;99.90;;;;;;7392006;19;20465;-74
2023/12/06 08:30:13;;;;;;;0.23;0.23;;;7.50;99.90;;;;;;7395000;19;20142;-75
2023/12/06 08:32:39;;;;;;;0.70;0.33;;;7.50;99.90;;;;;;7393652;19;20138;-74
2023/12/06 08:35:05;;;;;;;0.77;0.60;;;7.40;99.90;;;;;;7395142;19;20194;-74
2023/12/06 08:37:31;;;;;;;0.40;0.40;;;7.10;99.90;;;;;;7394673;19;20147;-75
2023/12/06 08:39:56;;;;;;;1.17;0.70;;;7.00;99.90;;;;;;7393216;19;20208;-75
2023/12/06 08:42:22;;;;;;;0.50;0.50;;;7.10;99.90;;;;;;7391585;19;20227;-74
2023/12/06 08:44:48;;;;;;;0.80;0.80;;;7.00;99.90;;;;;;7390743;19;20178;-76
2023/12/06 08:47:13;;;;;;;1.20;1.10;;;7.00;99.90;;;;;;7390900;19;20894;-76
2023/12/06 08:49:40;;;;;;;0.93;0.83;;;7.10;99.90;;;;;;7396536;19;20619;-73
2023/12/06 08:52:07;;;;;;;0.93;0.90;;;7.00;99.90;;;;;;7399438;19;20138;-77
2023/12/06 08:54:34;;;;;;;1.43;1.33;;;6.90;99.90;;;;;;7396968;19;20142;-77
2023/12/06 08:57:00;;;;;;;0.90;0.80;;;6.80;99.90;;;;;;7394295;19;20187;-77
2023/12/06 08:59:26;;;;;;;0.90;0.90;;;7.10;99.90;;;;;;7393494;19;20131;-76
2023/12/06 09:01:51;;;;;;;1.77;1.23;;;7.10;99.90;;;;;;7393792;19;20182;-76
2023/12/06 09:04:19;;;;;;;1.00;0.90;;;6.80;99.90;;;;;;7392190;19;20123;-76
2023/12/06 09:06:45;;;;;;;1.57;1.23;;;6.90;99.90;;;;;;7394344;19;20150;-76
2023/12/06 09:09:11;;;;;;;2.13;1.47;;;6.70;99.90;;;;;;7394150;19;20215;-76
2023/12/06 09:11:37;;;;;;;2.00;1.27;;;6.60;99.90;;;;;;7395198;19;20461;-77
2023/12/06 09:14:03;;;;;;;2.60;1.40;;;6.70;99.90;;;;;;7399420;19;20131;-77
2023/12/06 09:16:29;;;;;;;1.40;1.30;;;6.70;99.90;;;;;;7399277;19;20149;-78
2023/12/06 09:18:55;;;;;;;1.43;1.33;;;6.60;99.90;;;;;;7393114;19;20145;-79
2023/12/06 09:21:26;;;;;;;1.80;1.30;;;6.80;99.90;;;;;;7393721;19;20198;-79
2023/12/06 09:23:52;;;;;;;1.67;1.33;;;6.80;99.90;;;;;;7391854;19;20568;-77
2023/12/06 09:26:19;;;;;;;1.67;1.30;;;6.90;99.90;;;;;;7392368;19;20151;-77
2023/12/06 09:28:45;;;;;;;1.70;1.30;;;7.00;99.90;;;;;;7392362;19;20145;-77
2023/12/06 09:31:10;;;;;;;1.43;1.33;;;6.90;99.90;;;;;;7391234;19;20512;-76
2023/12/06 09:33:36;;;;;;;1.50;1.33;;;6.90;99.90;;;;;;7392082;19;20142;-77
2023/12/06 09:36:03;;;;;;;1.70;1.60;;;6.80;99.90;;;;;;7395326;19;20752;-81
2023/12/06 09:38:29;;;;;;;2.27;1.37;;;6.50;99.90;;;;;;7397250;19;20135;-79
2023/12/06 09:40:57;;;;;;;1.33;1.10;;;6.70;99.90;;;;;;7389883;19;20205;-80
2023/12/06 09:43:23;;;;;;;3.73;2.47;;;6.90;99.90;;;;;;7389278;19;20151;-77
2023/12/06 09:45:49;;;;;;;2.00;1.80;;;6.90;99.90;;;;;;7388418;19;20150;-79
2023/12/06 09:48:15;;;;;;;1.83;1.50;;;6.90;99.90;;;;;;7390838;19;20148;-79
2023/12/06 09:50:41;;;;;;;1.63;1.53;;;6.80;99.90;;;;;;7389859;19;20127;-76
2023/12/06 09:53:06;;;;;;;2.23;1.90;;;6.70;99.90;;;;;;7392334;19;20147;-78
2023/12/06 09:55:35;;;;;;;2.03;1.70;;;6.90;99.90;;;;;;7392774;19;20534;-79
2023/12/06 09:58:01;;;;;;;1.93;1.37;;;6.80;99.90;;;;;;7390054;19;20161;-77
2023/12/06 10:00:27;;;;;;;1.80;1.30;;;6.70;99.90;;;;;;7391766;19;20143;-77
2023/12/06 10:02:55;;;;;;;0.63;0.63;;;6.70;99.90;;;;;;7392295;19;20144;-78
2023/12/06 10:05:21;;;;;;;1.30;1.10;;;6.70;99.90;;;;;;7389691;19;20141;-78
2023/12/06 10:07:48;;;;;;;1.57;1.10;;;6.60;99.90;;;;;;7393677;19;20162;-77
2023/12/06 10:10:15;;;;;;;1.50;1.27;;;6.60;99.90;;;;;;7391830;19;20138;-76
2023/12/06 10:12:55;;;;;;;2.20;1.63;;;6.70;99.90;;;;;;7391551;19;20151;-76
2023/12/06 10:15:22;;;;;;;1.77;1.30;;;6.60;99.90;;;;;;7392723;19;20130;-77
2023/12/06 10:17:48;;;;;;;2.07;1.20;;;6.90;99.90;;;;;;7389426;19;20138;-75
2023/12/06 10:20:16;;;;;;;1.60;1.20;;;6.70;99.90;;;;;;7389698;19;20142;-76
2023/12/06 10:22:42;;;;;;;3.40;2.60;;;6.80;99.90;;;;;;7391075;19;20175;-77
2023/12/06 10:25:08;;;;;;;3.73;2.77;;;6.60;99.90;;;;;;7391980;19;20138;-76
2023/12/06 10:27:35;;;;;;;2.77;1.83;;;6.60;99.90;;;;;;7390547;19;20171;-77
2023/12/06 10:30:08;;;;;;;1.60;1.00;;;6.80;99.90;;;;;;7389978;19;20155;-77
2023/12/06 10:32:34;;;;;;;2.07;1.40;;;6.90;99.90;;;;;;7390419;19;20150;-78
2023/12/06 10:35:02;;;;;;;1.70;1.60;;;6.90;99.90;;;;;;7392722;19;20170;-77
2023/12/06 10:37:28;;;;;;;1.97;1.67;;;6.90;99.90;;;;;;7390568;19;20142;-78
2023/12/06 10:40:09;;;;;;;2.10;1.50;;;6.80;99.90;;;;;;7392084;19;20163;-78
2023/12/06 10:42:48;;;;;;;1.17;1.07;;;7.00;99.90;;;;;;7388344;19;20516;-77
2023/12/06 10:45:15;;;;;;;1.80;1.40;;;6.90;99.90;;;;;;7379644;19;20154;-77
2023/12/06 10:47:43;;;;;;;2.27;1.17;;;7.10;99.90;;;;;;7386750;19;20720;-77
2023/12/06 10:50:11;;;;;;;2.57;1.50;;;6.90;99.90;;;;;;7390152;19;20147;-76
2023/12/06 10:52:37;;;;;;;5.20;1.50;;;7.10;99.90;;;;;;7390547;19;20154;-76
2023/12/06 10:55:04;;;;;;;1.97;1.80;;;6.90;99.90;;;;;;7390655;19;20607;-76
2023/12/06 10:57:32;;;;;;;2.27;1.83;;;6.80;99.90;;;;;;7387539;19;20358;-76
2023/12/06 10:59:59;;;;;;;1.60;1.03;;;6.90;99.90;;;;;;7389474;19;20205;-76
2023/12/06 11:02:25;;;;;;;1.77;1.43;;;7.00;99.90;;;;;;7390384;19;20147;-75
2023/12/06 11:04:58;;;;;;;1.47;1.23;;;7.10;99.90;;;;;;7390647;19;20130;-75
2023/12/06 11:07:42;;;;;;;1.53;1.00;;;7.10;99.90;;;;;;7388264;19;20221;-76
2023/12/06 11:10:27;;;;;;;1.53;1.43;;;6.90;99.90;;;;;;7387163;19;20130;-76
2023/12/06 11:13:24;;;;;;;1.83;1.70;;;7.00;99.90;;;;;;7389316;19;20524;-76
2023/12/06 11:16:09;;;;;;;1.20;1.07;;;7.10;99.90;;;;;;7389926;19;20151;-76
2023/12/06 11:18:49;;;;;;;1.10;1.00;;;6.90;99.90;;;;;;7388025;19;20134;-77
2023/12/06 11:21:17;;;;;;;4.70;3.00;;;6.90;99.90;;;;;;7397870;19;20134;-75
2023/12/06 11:23:45;;;;;;;1.70;1.30;;;6.90;99.90;;;;;;7397434;19;20214;-76
2023/12/06 11:26:11;;;;;;;1.53;1.43;;;6.90;99.90;;;;;;7396037;19;20138;-76
2023/12/06 11:28:39;;;;;;;1.60;1.20;;;7.10;99.90;;;;;;7395985;19;20145;-76
2023/12/06 11:31:06;;;;;;;1.13;1.00;;;7.10;99.90;;;;;;7398408;19;20127;-76
2023/12/06 11:33:31;;;;;;;1.40;1.23;;;7.10;99.90;;;;;;7394243;19;20154;-78
2023/12/06 11:35:57;;;;;;;1.37;1.07;;;7.20;99.90;;;;;;7394167;19;20126;-76
2023/12/06 11:38:32;;;;;;;1.47;1.37;;;7.20;99.90;;;;;;7396526;19;20155;-76
2023/12/06 11:40:58;;;;;;;1.10;1.00;;;7.10;99.90;;;;;;7399110;19;20599;-75
2023/12/06 11:43:35;;;;;;;3.33;1.90;;;7.20;99.90;;;;;;7392295;19;20146;-78
2023/12/06 11:46:09;;;;;;;3.87;1.60;;;7.20;99.90;;;;;;7398296;19;20142;-76
2023/12/06 11:48:37;;;;;;;1.67;1.57;;;6.80;99.90;;;;;;7396823;19;20280;-75
2023/12/06 11:51:04;;;;;;;1.30;1.03;;;7.00;99.90;;;;;;7402086;19;20143;-75
2023/12/06 11:53:35;;;;;;;1.33;1.23;;;6.70;99.90;;;;;;7398826;19;20170;-76
2023/12/06 11:56:01;;;;;;;1.90;1.53;;;6.90;99.90;;;;;;7397209;19;20147;-75
2023/12/06 11:58:30;;;;;;;2.17;1.37;;;7.00;99.90;;;;;;7397752;19;20139;-78
2023/12/06 12:00:59;;;;;;;1.50;1.20;;;7.10;99.90;;;;;;7395878;19;20146;-77
2023/12/06 12:03:26;;;;;;;1.50;1.40;;;6.90;99.90;;;;;;7394740;19;20134;-76
2023/12/06 12:05:54;;;;;;;1.43;1.30;;;6.90;99.90;;;;;;7394691;19;20151;-77
2023/12/06 12:08:20;;;;;;;1.33;1.20;;;7.10;99.90;;;;;;7395696;19;20568;-77
2023/12/06 12:10:47;;;;;;;1.50;1.37;;;7.50;99.90;;;;;;7394761;19;20608;-75
2023/12/06 12:13:20;;;;;;;1.83;1.20;;;7.90;99.90;;;;;;7396882;19;20138;-77
2023/12/06 12:15:59;;;;;;;1.30;1.20;;;7.90;99.90;;;;;;7396522;19;20600;-76
2023/12/06 12:18:26;;;;;;;1.30;1.20;;;8.10;99.90;;;;;;7397669;19;20487;-77
2023/12/06 12:20:52;;;;;;;1.73;1.30;;;7.90;99.90;;;;;;7396862;19;20147;-77
2023/12/06 12:23:18;;;;;;;1.43;1.20;;;7.80;99.90;;;;;;7395901;19;20146;-78
2023/12/06 12:25:51;;;;;;;2.10;1.47;;;8.00;99.90;;;;;;7394207;19;20126;-76
2023/12/06 12:28:17;;;;;;;1.37;1.17;;;8.10;99.90;;;;;;7396083;19;20134;-77
2023/12/06 12:30:44;;;;;;;1.30;1.10;;;8.10;99.90;;;;;;7392887;19;20139;-77
2023/12/06 12:33:11;;;;;;;1.70;1.50;;;8.00;99.90;;;;;;7395812;19;20127;-77
2023/12/06 12:35:37;;;;;;;2.00;1.17;;;7.90;99.90;;;;;;7397690;19;20159;-76
2023/12/06 12:38:03;;;;;;;1.07;0.97;;;7.80;99.90;;;;;;7394633;19;21182;-76
2023/12/06 12:40:29;;;;;;;1.30;0.93;;;7.70;99.90;;;;;;7394478;19;20146;-76
2023/12/06 12:42:56;;;;;;;1.53;1.10;;;7.50;99.90;;;;;;7393703;19;20157;-77
2023/12/06 12:45:22;;;;;;;1.80;1.00;;;7.40;99.90;;;;;;7393175;19;20169;-77
2023/12/06 12:47:48;;;;;;;1.90;1.50;;;7.40;99.90;;;;;;7394968;19;20584;-77
2023/12/06 12:50:21;;;;;;;2.97;2.03;;;7.50;99.90;;;;;;7389961;19;20643;-76
2023/12/06 12:52:53;;;;;;;1.53;1.10;;;7.50;99.90;;;;;;7387916;19;20524;-75
2023/12/06 12:55:20;;;;;;;1.17;1.07;;;7.40;99.90;;;;;;7395551;19;20130;-76